sensor_id;sensor_type;location;lat;lon;timestamp;pressure;altitude;pressure_sealevel;temperature;humidity
54666;BME280;40566;50.006;36.180;2023-07-09T00:00:50;98823.75;;;21.75;82.96
54666;BME280;40566;50.006;36.180;2023-07-09T00:05:51;98820.28;;;21.75;83.09
54666;BME280;40566;50.006;36.180;2023-07-09T00:10:52;98818.63;;;21.74;83.33
54666;BME280;40566;50.006;36.180;2023-07-09T00:15:56;98814.03;;;21.76;83.33
54666;BME280;40566;50.006;36.180;2023-07-09T00:20:58;98834.28;;;21.75;83.53
54666;BME280;40566;50.006;36.180;2023-07-09T00:25:59;98838.44;;;21.78;83.50
54666;BME280;40566;50.006;36.180;2023-07-09T00:31:00;98835.41;;;21.83;83.27
54666;BME280;40566;50.006;36.180;2023-07-09T00:36:01;98820.84;;;21.78;83.60
54666;BME280;40566;50.006;36.180;2023-07-09T00:41:06;98819.47;;;21.74;83.60
54666;BME280;40566;50.006;36.180;2023-07-09T00:47:10;98821.53;;;21.71;83.75
54666;BME280;40566;50.006;36.180;2023-07-09T00:51:40;98821.94;;;21.66;83.80
54666;BME280;40566;50.006;36.180;2023-07-09T00:56:45;98823.84;;;21.64;83.82
54666;BME280;40566;50.006;36.180;2023-07-09T01:01:46;98829.53;;;21.59;83.94
54666;BME280;40566;50.006;36.180;2023-07-09T01:06:53;98827.03;;;21.58;84.01
54666;BME280;40566;50.006;36.180;2023-07-09T01:11:55;98828.03;;;21.57;83.96
54666;BME280;40566;50.006;36.180;2023-07-09T01:17:00;98828.84;;;21.57;83.87
54666;BME280;40566;50.006;36.180;2023-07-09T01:22:01;98845.88;;;21.53;83.83
54666;BME280;40566;50.006;36.180;2023-07-09T01:27:03;98838.41;;;21.49;83.86
54666;BME280;40566;50.006;36.180;2023-07-09T01:32:04;98847.00;;;21.51;83.66
54666;BME280;40566;50.006;36.180;2023-07-09T01:37:06;98843.66;;;21.49;83.62
54666;BME280;40566;50.006;36.180;2023-07-09T01:42:07;98848.34;;;21.45;83.62
54666;BME280;40566;50.006;36.180;2023-07-09T01:47:08;98854.69;;;21.43;83.77
54666;BME280;40566;50.006;36.180;2023-07-09T01:52:09;98846.81;;;21.43;83.67
54666;BME280;40566;50.006;36.180;2023-07-09T01:57:29;98845.25;;;21.40;83.66
54666;BME280;40566;50.006;36.180;2023-07-09T02:02:35;98850.38;;;21.42;83.56
54666;BME280;40566;50.006;36.180;2023-07-09T02:07:36;98855.78;;;21.40;83.36
54666;BME280;40566;50.006;36.180;2023-07-09T02:12:37;98848.16;;;21.37;83.46
54666;BME280;40566;50.006;36.180;2023-07-09T02:17:37;98850.63;;;21.38;83.39
54666;BME280;40566;50.006;36.180;2023-07-09T02:22:38;98845.94;;;21.42;83.40
54666;BME280;40566;50.006;36.180;2023-07-09T02:27:39;98851.38;;;21.41;83.13
54666;BME280;40566;50.006;36.180;2023-07-09T02:32:39;98856.63;;;21.41;83.18
54666;BME280;40566;50.006;36.180;2023-07-09T02:37:41;98852.03;;;21.33;83.20
54666;BME280;40566;50.006;36.180;2023-07-09T02:42:42;98858.66;;;21.27;83.30
54666;BME280;40566;50.006;36.180;2023-07-09T02:47:43;98857.38;;;21.22;83.43
54666;BME280;40566;50.006;36.180;2023-07-09T02:52:43;98855.00;;;21.18;83.35
54666;BME280;40566;50.006;36.180;2023-07-09T02:57:45;98860.41;;;21.17;83.43
54666;BME280;40566;50.006;36.180;2023-07-09T03:02:45;98853.03;;;21.11;83.37
54666;BME280;40566;50.006;36.180;2023-07-09T03:07:46;98860.22;;;21.09;83.46
54666;BME280;40566;50.006;36.180;2023-07-09T03:12:46;98859.38;;;21.08;83.10
54666;BME280;40566;50.006;36.180;2023-07-09T03:17:47;98849.97;;;21.06;83.22
54666;BME280;40566;50.006;36.180;2023-07-09T03:22:47;98847.75;;;21.01;83.12
54666;BME280;40566;50.006;36.180;2023-07-09T03:27:48;98831.41;;;20.97;83.09
54666;BME280;40566;50.006;36.180;2023-07-09T03:32:49;98833.06;;;20.98;82.87
54666;BME280;40566;50.006;36.180;2023-07-09T03:37:50;98834.28;;;20.94;82.96
54666;BME280;40566;50.006;36.180;2023-07-09T03:42:50;98836.09;;;20.94;82.87
54666;BME280;40566;50.006;36.180;2023-07-09T03:47:51;98835.25;;;20.93;82.85
54666;BME280;40566;50.006;36.180;2023-07-09T03:52:52;98829.84;;;20.95;82.79
54666;BME280;40566;50.006;36.180;2023-07-09T03:57:56;98818.38;;;20.96;82.86
54666;BME280;40566;50.006;36.180;2023-07-09T04:02:57;98826.84;;;20.99;82.78
54666;BME280;40566;50.006;36.180;2023-07-09T04:07:57;98827.78;;;20.98;82.86
54666;BME280;40566;50.006;36.180;2023-07-09T04:12:58;98835.97;;;20.95;82.97
54666;BME280;40566;50.006;36.180;2023-07-09T04:17:59;98828.06;;;20.95;83.04
54666;BME280;40566;50.006;36.180;2023-07-09T04:22:59;98834.59;;;21.01;82.89
54666;BME280;40566;50.006;36.180;2023-07-09T04:28:00;98828.50;;;21.00;82.87
54666;BME280;40566;50.006;36.180;2023-07-09T04:33:01;98834.19;;;21.06;82.83
54666;BME280;40566;50.006;36.180;2023-07-09T04:38:02;98821.19;;;21.04;82.75
54666;BME280;40566;50.006;36.180;2023-07-09T04:43:04;98833.22;;;21.07;82.78
54666;BME280;40566;50.006;36.180;2023-07-09T04:48:05;98825.78;;;21.12;82.78
54666;BME280;40566;50.006;36.180;2023-07-09T04:53:05;98828.41;;;21.12;82.80
54666;BME280;40566;50.006;36.180;2023-07-09T04:58:06;98829.34;;;21.11;82.86
54666;BME280;40566;50.006;36.180;2023-07-09T05:03:06;98826.88;;;21.09;83.02
54666;BME280;40566;50.006;36.180;2023-07-09T05:08:07;98820.78;;;21.09;82.89
54666;BME280;40566;50.006;36.180;2023-07-09T05:13:08;98820.78;;;21.09;82.67
54666;BME280;40566;50.006;36.180;2023-07-09T05:18:08;98834.91;;;21.08;82.85
54666;BME280;40566;50.006;36.180;2023-07-09T05:23:10;98822.56;;;21.08;82.79
54666;BME280;40566;50.006;36.180;2023-07-09T05:28:10;98823.56;;;21.07;82.77
54666;BME280;40566;50.006;36.180;2023-07-09T05:33:11;98821.63;;;21.09;82.77
54666;BME280;40566;50.006;36.180;2023-07-09T05:38:15;98815.50;;;21.09;82.68
54666;BME280;40566;50.006;36.180;2023-07-09T05:43:15;98826.72;;;21.11;82.57
54666;BME280;40566;50.006;36.180;2023-07-09T05:48:16;98828.41;;;21.12;82.59
54666;BME280;40566;50.006;36.180;2023-07-09T05:53:16;98825.38;;;21.16;82.47
54666;BME280;40566;50.006;36.180;2023-07-09T05:58:17;98822.91;;;21.15;82.58
54666;BME280;40566;50.006;36.180;2023-07-09T06:03:17;98820.53;;;21.12;82.39
54666;BME280;40566;50.006;36.180;2023-07-09T06:08:19;98808.06;;;21.14;82.42
54666;BME280;40566;50.006;36.180;2023-07-09T06:13:20;98820.69;;;21.20;82.03
54666;BME280;40566;50.006;36.180;2023-07-09T06:18:23;98805.06;;;21.28;81.82
54666;BME280;40566;50.006;36.180;2023-07-09T06:23:24;98830.00;;;21.34;81.69
54666;BME280;40566;50.006;36.180;2023-07-09T06:28:27;98821.13;;;21.25;82.03
54666;BME280;40566;50.006;36.180;2023-07-09T06:33:31;98823.44;;;21.18;82.28
54666;BME280;40566;50.006;36.180;2023-07-09T06:38:31;98835.31;;;21.13;82.17
54666;BME280;40566;50.006;36.180;2023-07-09T06:43:32;98827.84;;;21.08;82.12
54666;BME280;40566;50.006;36.180;2023-07-09T06:48:33;98835.84;;;21.07;82.09
54666;BME280;40566;50.006;36.180;2023-07-09T06:53:33;98829.75;;;21.06;81.91
54666;BME280;40566;50.006;36.180;2023-07-09T06:58:36;98820.25;;;21.15;81.81
54666;BME280;40566;50.006;36.180;2023-07-09T07:03:36;98827.88;;;21.18;81.91
54666;BME280;40566;50.006;36.180;2023-07-09T07:08:38;98825.81;;;21.22;81.56
54666;BME280;40566;50.006;36.180;2023-07-09T07:13:40;98821.38;;;21.22;81.54
54666;BME280;40566;50.006;36.180;2023-07-09T07:18:41;98830.41;;;21.29;81.34
54666;BME280;40566;50.006;36.180;2023-07-09T07:23:41;98830.69;;;21.36;81.37
54666;BME280;40566;50.006;36.180;2023-07-09T07:28:42;98825.16;;;21.29;81.01
54666;BME280;40566;50.006;36.180;2023-07-09T07:33:42;98832.63;;;21.34;81.16
54666;BME280;40566;50.006;36.180;2023-07-09T07:38:43;98826.81;;;21.40;81.25
54666;BME280;40566;50.006;36.180;2023-07-09T07:43:43;98826.47;;;21.45;80.99
54666;BME280;40566;50.006;36.180;2023-07-09T07:48:44;98835.19;;;21.45;80.95
54666;BME280;40566;50.006;36.180;2023-07-09T07:53:45;98831.19;;;21.51;80.76
54666;BME280;40566;50.006;36.180;2023-07-09T07:58:45;98829.25;;;21.53;80.73
54666;BME280;40566;50.006;36.180;2023-07-09T08:03:46;98834.69;;;21.61;80.75
54666;BME280;40566;50.006;36.180;2023-07-09T08:08:47;98824.03;;;21.72;80.30
54666;BME280;40566;50.006;36.180;2023-07-09T08:13:47;98828.19;;;21.75;79.85
54666;BME280;40566;50.006;36.180;2023-07-09T08:18:48;98832.75;;;21.73;79.86
54666;BME280;40566;50.006;36.180;2023-07-09T08:23:48;98842.69;;;21.59;80.38
54666;BME280;40566;50.006;36.180;2023-07-09T08:28:49;98849.06;;;21.47;80.56
54666;BME280;40566;50.006;36.180;2023-07-09T08:33:49;98849.25;;;21.34;80.89
54666;BME280;40566;50.006;36.180;2023-07-09T08:38:50;98847.59;;;21.33;80.73
54666;BME280;40566;50.006;36.180;2023-07-09T08:49:26;98835.09;;;21.26;80.80
54666;BME280;40566;50.006;36.180;2023-07-09T08:54:34;98836.09;;;21.34;80.45
54666;BME280;40566;50.006;36.180;2023-07-09T08:59:37;98840.34;;;21.47;80.13
54666;BME280;40566;50.006;36.180;2023-07-09T09:04:39;98839.78;;;21.53;80.42
54666;BME280;40566;50.006;36.180;2023-07-09T09:09:48;98840.34;;;21.56;80.23
54666;BME280;40566;50.006;36.180;2023-07-09T09:14:57;98832.72;;;21.53;80.01
54666;BME280;40566;50.006;36.180;2023-07-09T09:20:04;98840.16;;;21.48;80.17
54666;BME280;40566;50.006;36.180;2023-07-09T09:25:29;98845.09;;;21.32;80.62
54666;BME280;40566;50.006;36.180;2023-07-09T09:30:30;98848.78;;;21.19;80.50
54666;BME280;40566;50.006;36.180;2023-07-09T09:35:38;98867.59;;;21.15;80.80
54666;BME280;40566;50.006;36.180;2023-07-09T09:40:39;98863.25;;;21.04;80.94
54666;BME280;40566;50.006;36.180;2023-07-09T09:45:41;98863.38;;;21.03;80.98
54666;BME280;40566;50.006;36.180;2023-07-09T09:50:45;98866.53;;;20.96;81.11
54666;BME280;40566;50.006;36.180;2023-07-09T09:55:47;98873.72;;;20.94;81.10
54666;BME280;40566;50.006;36.180;2023-07-09T10:00:50;98875.19;;;20.87;81.10
54666;BME280;40566;50.006;36.180;2023-07-09T10:05:58;98875.72;;;20.81;81.11
54666;BME280;40566;50.006;36.180;2023-07-09T10:11:21;98883.81;;;20.68;81.38
54666;BME280;40566;50.006;36.180;2023-07-09T10:16:43;98886.56;;;20.67;81.51
54666;BME280;40566;50.006;36.180;2023-07-09T10:22:00;98890.06;;;20.56;81.70
54666;BME280;40566;50.006;36.180;2023-07-09T10:27:24;98883.13;;;20.55;81.92
54666;BME280;40566;50.006;36.180;2023-07-09T10:32:56;98883.09;;;20.66;81.54
54666;BME280;40566;50.006;36.180;2023-07-09T10:43:17;98897.78;;;20.69;81.41
54666;BME280;40566;50.006;36.180;2023-07-09T10:48:26;98901.91;;;20.50;81.82
54666;BME280;40566;50.006;36.180;2023-07-09T10:53:46;98902.31;;;20.67;81.38
54666;BME280;40566;50.006;36.180;2023-07-09T10:59:01;98902.06;;;20.70;81.07
54666;BME280;40566;50.006;36.180;2023-07-09T11:04:11;98899.00;;;20.65;81.28
54666;BME280;40566;50.006;36.180;2023-07-09T11:09:34;98906.53;;;20.58;81.29
54666;BME280;40566;50.006;36.180;2023-07-09T11:14:46;98917.78;;;20.49;81.55
54666;BME280;40566;50.006;36.180;2023-07-09T11:19:55;98921.03;;;20.41;81.63
54666;BME280;40566;50.006;36.180;2023-07-09T11:30:26;98933.75;;;20.25;81.77
54666;BME280;40566;50.006;36.180;2023-07-09T11:35:46;98937.13;;;20.15;82.18
54666;BME280;40566;50.006;36.180;2023-07-09T11:40:53;98935.22;;;20.17;82.40
54666;BME280;40566;50.006;36.180;2023-07-09T11:45:57;98944.78;;;20.18;82.07
54666;BME280;40566;50.006;36.180;2023-07-09T11:51:05;98946.44;;;20.08;81.98
54666;BME280;40566;50.006;36.180;2023-07-09T11:56:09;98963.66;;;20.01;81.94
54666;BME280;40566;50.006;36.180;2023-07-09T12:01:15;98954.34;;;19.97;81.75
54666;BME280;40566;50.006;36.180;2023-07-09T12:06:26;98951.13;;;19.93;81.63
54666;BME280;40566;50.006;36.180;2023-07-09T12:11:30;98959.13;;;19.92;81.55
54666;BME280;40566;50.006;36.180;2023-07-09T12:16:34;98954.69;;;19.92;81.32
54666;BME280;40566;50.006;36.180;2023-07-09T12:21:38;98955.78;;;19.90;81.40
54666;BME280;40566;50.006;36.180;2023-07-09T12:26:39;98962.47;;;19.94;81.33
54666;BME280;40566;50.006;36.180;2023-07-09T12:31:40;98964.38;;;19.92;81.16
54666;BME280;40566;50.006;36.180;2023-07-09T12:36:49;98942.06;;;19.97;81.01
54666;BME280;40566;50.006;36.180;2023-07-09T12:41:49;98950.75;;;20.09;80.67
54666;BME280;40566;50.006;36.180;2023-07-09T12:46:54;98959.66;;;20.18;80.25
54666;BME280;40566;50.006;36.180;2023-07-09T12:51:56;98947.41;;;20.18;80.23
54666;BME280;40566;50.006;36.180;2023-07-09T12:56:59;98939.50;;;20.18;79.91
54666;BME280;40566;50.006;36.180;2023-07-09T13:07:35;98942.16;;;20.07;79.73
54666;BME280;40566;50.006;36.180;2023-07-09T13:12:39;98939.31;;;19.99;79.71
54666;BME280;40566;50.006;36.180;2023-07-09T13:17:42;98951.25;;;19.92;79.37
54666;BME280;40566;50.006;36.180;2023-07-09T13:22:43;98960.09;;;19.79;79.47
54666;BME280;40566;50.006;36.180;2023-07-09T13:27:45;98964.16;;;19.72;79.50
54666;BME280;40566;50.006;36.180;2023-07-09T13:32:48;98936.72;;;19.65;79.57
54666;BME280;40566;50.006;36.180;2023-07-09T13:37:49;98951.84;;;19.61;79.44
54666;BME280;40566;50.006;36.180;2023-07-09T13:42:50;98964.84;;;19.63;79.24
54666;BME280;40566;50.006;36.180;2023-07-09T13:47:51;98953.38;;;19.64;78.87
54666;BME280;40566;50.006;36.180;2023-07-09T13:52:52;98969.41;;;19.61;78.46
54666;BME280;40566;50.006;36.180;2023-07-09T13:57:52;98977.72;;;19.55;78.17
54666;BME280;40566;50.006;36.180;2023-07-09T14:02:53;98977.47;;;19.47;78.13
54666;BME280;40566;50.006;36.180;2023-07-09T14:07:54;98986.19;;;19.36;77.72
54666;BME280;40566;50.006;36.180;2023-07-09T14:12:55;98962.94;;;19.31;76.97
54666;BME280;40566;50.006;36.180;2023-07-09T14:17:57;98977.09;;;19.29;76.85
54666;BME280;40566;50.006;36.180;2023-07-09T14:22:58;98972.69;;;19.29;76.55
54666;BME280;40566;50.006;36.180;2023-07-09T14:27:59;98974.72;;;19.26;75.42
54666;BME280;40566;50.006;36.180;2023-07-09T14:32:59;98989.03;;;19.21;74.93
54666;BME280;40566;50.006;36.180;2023-07-09T14:38:00;98982.81;;;19.22;74.91
54666;BME280;40566;50.006;36.180;2023-07-09T14:43:01;98990.56;;;19.24;74.20
54666;BME280;40566;50.006;36.180;2023-07-09T14:48:13;98975.44;;;19.28;73.21
54666;BME280;40566;50.006;36.180;2023-07-09T14:53:21;98982.44;;;19.27;73.23
54666;BME280;40566;50.006;36.180;2023-07-09T14:58:22;98973.63;;;19.17;74.06
54666;BME280;40566;50.006;36.180;2023-07-09T15:03:25;98986.19;;;19.36;73.46
54666;BME280;40566;50.006;36.180;2023-07-09T15:08:26;99003.56;;;19.37;73.08
54666;BME280;40566;50.006;36.180;2023-07-09T15:13:31;98998.00;;;19.41;72.84
54666;BME280;40566;50.006;36.180;2023-07-09T15:18:33;99014.91;;;19.37;73.21
54666;BME280;40566;50.006;36.180;2023-07-09T15:23:40;99015.50;;;19.41;71.87
54666;BME280;40566;50.006;36.180;2023-07-09T15:28:42;99025.41;;;19.37;71.66
54666;BME280;40566;50.006;36.180;2023-07-09T15:33:42;99042.06;;;19.36;72.08
54666;BME280;40566;50.006;36.180;2023-07-09T15:38:43;99041.34;;;19.34;71.95
54666;BME280;40566;50.006;36.180;2023-07-09T15:43:44;99041.22;;;19.25;70.86
54666;BME280;40566;50.006;36.180;2023-07-09T15:48:45;99049.19;;;19.23;69.93
54666;BME280;40566;50.006;36.180;2023-07-09T15:53:46;99063.38;;;19.20;70.69
54666;BME280;40566;50.006;36.180;2023-07-09T15:58:47;99071.97;;;19.22;70.25
54666;BME280;40566;50.006;36.180;2023-07-09T16:03:57;99052.53;;;19.25;69.00
54666;BME280;40566;50.006;36.180;2023-07-09T16:08:58;99065.16;;;19.20;69.03
54666;BME280;40566;50.006;36.180;2023-07-09T16:13:58;99071.34;;;19.19;69.09
54666;BME280;40566;50.006;36.180;2023-07-09T16:18:59;99077.44;;;19.19;69.08
54666;BME280;40566;50.006;36.180;2023-07-09T16:24:02;99072.22;;;19.19;68.75
54666;BME280;40566;50.006;36.180;2023-07-09T16:29:04;99081.84;;;19.19;68.74
54666;BME280;40566;50.006;36.180;2023-07-09T16:34:05;99081.13;;;19.17;68.61
54666;BME280;40566;50.006;36.180;2023-07-09T16:44:27;99089.44;;;19.11;68.59
54666;BME280;40566;50.006;36.180;2023-07-09T16:49:34;99068.47;;;19.11;68.47
54666;BME280;40566;50.006;36.180;2023-07-09T16:54:36;99091.34;;;19.09;69.30
54666;BME280;40566;50.006;36.180;2023-07-09T16:59:37;99089.69;;;19.08;70.07
54666;BME280;40566;50.006;36.180;2023-07-09T17:04:37;99095.13;;;19.05;70.37
54666;BME280;40566;50.006;36.180;2023-07-09T17:09:38;99083.19;;;19.00;69.31
54666;BME280;40566;50.006;36.180;2023-07-09T17:14:39;99083.81;;;19.04;69.63
54666;BME280;40566;50.006;36.180;2023-07-09T17:19:40;99084.88;;;19.01;69.42
54666;BME280;40566;50.006;36.180;2023-07-09T17:24:41;99087.47;;;19.01;69.48
54666;BME280;40566;50.006;36.180;2023-07-09T17:29:42;99088.44;;;19.00;69.32
54666;BME280;40566;50.006;36.180;2023-07-09T17:34:44;99092.25;;;18.96;69.32
54666;BME280;40566;50.006;36.180;2023-07-09T17:39:45;99098.56;;;18.94;69.89
54666;BME280;40566;50.006;36.180;2023-07-09T17:44:46;99111.75;;;18.92;69.90
54666;BME280;40566;50.006;36.180;2023-07-09T17:49:46;99113.22;;;18.96;70.07
54666;BME280;40566;50.006;36.180;2023-07-09T17:54:47;99107.72;;;18.99;69.50
54666;BME280;40566;50.006;36.180;2023-07-09T17:59:48;99123.06;;;18.93;69.76
54666;BME280;40566;50.006;36.180;2023-07-09T18:04:49;99125.81;;;18.91;70.64
54666;BME280;40566;50.006;36.180;2023-07-09T18:09:50;99119.09;;;18.87;71.12
54666;BME280;40566;50.006;36.180;2023-07-09T18:14:53;99119.00;;;18.89;71.16
54666;BME280;40566;50.006;36.180;2023-07-09T18:19:55;99130.66;;;18.85;71.30
54666;BME280;40566;50.006;36.180;2023-07-09T18:24:55;99133.50;;;18.81;71.39
54666;BME280;40566;50.006;36.180;2023-07-09T18:29:56;99129.94;;;18.82;71.27
54666;BME280;40566;50.006;36.180;2023-07-09T18:34:59;99118.38;;;18.85;71.14
54666;BME280;40566;50.006;36.180;2023-07-09T18:40:01;99127.63;;;18.78;71.58
54666;BME280;40566;50.006;36.180;2023-07-09T18:45:02;99129.72;;;18.73;71.48
54666;BME280;40566;50.006;36.180;2023-07-09T18:50:03;99119.34;;;18.71;71.39
54666;BME280;40566;50.006;36.180;2023-07-09T18:55:15;99105.31;;;18.72;71.45
54666;BME280;40566;50.006;36.180;2023-07-09T19:00:17;99108.03;;;18.71;71.60
54666;BME280;40566;50.006;36.180;2023-07-09T19:05:22;99104.06;;;18.65;71.43
54666;BME280;40566;50.006;36.180;2023-07-09T19:10:26;99095.38;;;18.65;71.57
54666;BME280;40566;50.006;36.180;2023-07-09T19:15:29;99095.38;;;18.65;71.60
54666;BME280;40566;50.006;36.180;2023-07-09T19:20:32;99100.81;;;18.61;71.97
54666;BME280;40566;50.006;36.180;2023-07-09T19:25:33;99099.28;;;18.59;72.05
54666;BME280;40566;50.006;36.180;2023-07-09T19:30:33;99101.78;;;18.60;71.67
54666;BME280;40566;50.006;36.180;2023-07-09T19:35:34;99089.84;;;18.56;71.86
54666;BME280;40566;50.006;36.180;2023-07-09T19:40:34;99092.59;;;18.55;72.22
54666;BME280;40566;50.006;36.180;2023-07-09T19:45:41;99078.03;;;18.51;72.33
54666;BME280;40566;50.006;36.180;2023-07-09T19:50:43;99091.34;;;18.48;72.57
54666;BME280;40566;50.006;36.180;2023-07-09T19:55:50;99095.75;;;18.47;72.22
54666;BME280;40566;50.006;36.180;2023-07-09T20:00:54;99094.28;;;18.43;72.14
54666;BME280;40566;50.006;36.180;2023-07-09T20:05:57;99077.13;;;18.39;71.69
54666;BME280;40566;50.006;36.180;2023-07-09T20:11:01;99066.84;;;18.36;72.31
54666;BME280;40566;50.006;36.180;2023-07-09T20:16:02;99072.53;;;18.30;72.45
54666;BME280;40566;50.006;36.180;2023-07-09T20:21:15;99066.66;;;18.26;72.07
54666;BME280;40566;50.006;36.180;2023-07-09T20:26:18;99066.28;;;18.19;72.49
54666;BME280;40566;50.006;36.180;2023-07-09T20:31:23;99054.84;;;18.20;71.69
54666;BME280;40566;50.006;36.180;2023-07-09T20:36:24;99060.81;;;18.22;72.44
54666;BME280;40566;50.006;36.180;2023-07-09T20:41:24;99064.59;;;18.18;71.69
54666;BME280;40566;50.006;36.180;2023-07-09T20:46:28;99063.84;;;18.16;72.18
54666;BME280;40566;50.006;36.180;2023-07-09T20:51:28;99060.75;;;18.11;72.28
54666;BME280;40566;50.006;36.180;2023-07-09T20:56:29;99054.06;;;18.07;72.18
54666;BME280;40566;50.006;36.180;2023-07-09T21:01:31;99047.84;;;18.08;72.21
54666;BME280;40566;50.006;36.180;2023-07-09T21:06:31;99046.31;;;18.06;72.43
54666;BME280;40566;50.006;36.180;2023-07-09T21:11:32;99042.31;;;18.00;72.80
54666;BME280;40566;50.006;36.180;2023-07-09T21:16:33;99047.75;;;17.97;72.87
54666;BME280;40566;50.006;36.180;2023-07-09T21:21:33;99046.94;;;17.96;73.19
54666;BME280;40566;50.006;36.180;2023-07-09T21:26:34;99036.47;;;17.96;73.82
54666;BME280;40566;50.006;36.180;2023-07-09T21:31:34;99043.25;;;17.99;73.97
54666;BME280;40566;50.006;36.180;2023-07-09T21:36:35;99051.88;;;18.01;74.15
54666;BME280;40566;50.006;36.180;2023-07-09T21:41:36;99047.47;;;18.01;74.25
54666;BME280;40566;50.006;36.180;2023-07-09T21:46:37;99041.50;;;17.99;74.26
54666;BME280;40566;50.006;36.180;2023-07-09T21:51:37;99042.44;;;17.98;74.17
54666;BME280;40566;50.006;36.180;2023-07-09T21:56:38;99044.94;;;18.00;74.33
54666;BME280;40566;50.006;36.180;2023-07-09T22:01:39;99037.19;;;17.98;74.20
54666;BME280;40566;50.006;36.180;2023-07-09T22:06:44;99032.69;;;18.00;74.08
54666;BME280;40566;50.006;36.180;2023-07-09T22:11:45;99035.53;;;17.97;74.09
54666;BME280;40566;50.006;36.180;2023-07-09T22:16:49;99039.09;;;17.96;73.91
54666;BME280;40566;50.006;36.180;2023-07-09T22:21:50;99041.81;;;17.95;73.87
54666;BME280;40566;50.006;36.180;2023-07-09T22:26:50;99059.19;;;17.96;73.86
54666;BME280;40566;50.006;36.180;2023-07-09T22:31:52;99055.75;;;17.95;74.02
54666;BME280;40566;50.006;36.180;2023-07-09T22:36:52;99060.13;;;17.95;74.00
54666;BME280;40566;50.006;36.180;2023-07-09T22:41:53;99060.34;;;17.92;73.46
54666;BME280;40566;50.006;36.180;2023-07-09T22:46:55;99054.88;;;17.95;73.24
54666;BME280;40566;50.006;36.180;2023-07-09T22:51:57;99055.94;;;17.92;73.00
54666;BME280;40566;50.006;36.180;2023-07-09T22:56:57;99062.34;;;17.88;73.52
54666;BME280;40566;50.006;36.180;2023-07-09T23:01:58;99066.00;;;17.86;73.10
54666;BME280;40566;50.006;36.180;2023-07-09T23:06:58;99064.31;;;17.84;72.93
54666;BME280;40566;50.006;36.180;2023-07-09T23:12:00;99060.03;;;17.83;73.18
54666;BME280;40566;50.006;36.180;2023-07-09T23:17:01;99056.88;;;17.78;73.38
54666;BME280;40566;50.006;36.180;2023-07-09T23:22:01;99051.63;;;17.78;72.99
54666;BME280;40566;50.006;36.180;2023-07-09T23:27:03;99043.88;;;17.77;72.92
54666;BME280;40566;50.006;36.180;2023-07-09T23:32:04;99048.59;;;17.72;73.42
54666;BME280;40566;50.006;36.180;2023-07-09T23:37:05;99049.53;;;17.71;73.28
54666;BME280;40566;50.006;36.180;2023-07-09T23:42:08;99027.88;;;17.69;73.24
54666;BME280;40566;50.006;36.180;2023-07-09T23:47:12;99054.38;;;17.64;73.24
54666;BME280;40566;50.006;36.180;2023-07-09T23:52:13;99061.38;;;17.63;72.91
54666;BME280;40566;50.006;36.180;2023-07-09T23:57:14;99048.50;;;17.60;72.91
